sensor_id;sensor_type;location;lat;lon;timestamp;P1;durP1;ratioP1;P2;durP2;ratioP2
40244;SDS011;25963;42.694;23.600;2023-08-01T00:01:23;7.32;;;6.22;;
40244;SDS011;25963;42.694;23.600;2023-08-01T00:03:48;6.47;;;5.97;;
40244;SDS011;25963;42.694;23.600;2023-08-01T00:06:13;6.65;;;6.00;;
40244;SDS011;25963;42.694;23.600;2023-08-01T00:08:39;6.72;;;6.10;;
40244;SDS011;25963;42.694;23.600;2023-08-01T00:11:04;6.82;;;6.13;;
40244;SDS011;25963;42.694;23.600;2023-08-01T00:13:30;7.25;;;6.47;;
40244;SDS011;25963;42.694;23.600;2023-08-01T00:15:56;7.45;;;6.63;;
40244;SDS011;25963;42.694;23.600;2023-08-01T00:18:21;7.18;;;6.47;;
40244;SDS011;25963;42.694;23.600;2023-08-01T00:20:46;6.93;;;6.22;;
40244;SDS011;25963;42.694;23.600;2023-08-01T00:23:12;6.47;;;5.93;;
40244;SDS011;25963;42.694;23.600;2023-08-01T00:25:37;6.72;;;6.13;;
40244;SDS011;25963;42.694;23.600;2023-08-01T00:28:03;7.55;;;6.85;;
40244;SDS011;25963;42.694;23.600;2023-08-01T00:30:28;7.65;;;6.93;;
40244;SDS011;25963;42.694;23.600;2023-08-01T00:32:54;7.47;;;6.78;;
40244;SDS011;25963;42.694;23.600;2023-08-01T00:35:19;7.65;;;6.85;;
40244;SDS011;25963;42.694;23.600;2023-08-01T00:37:44;6.57;;;6.07;;
40244;SDS011;25963;42.694;23.600;2023-08-01T00:40:10;7.03;;;6.40;;
40244;SDS011;25963;42.694;23.600;2023-08-01T00:42:36;6.93;;;6.32;;
40244;SDS011;25963;42.694;23.600;2023-08-01T00:45:05;8.15;;;6.28;;
40244;SDS011;25963;42.694;23.600;2023-08-01T00:47:31;8.52;;;6.60;;
40244;SDS011;25963;42.694;23.600;2023-08-01T00:49:56;7.95;;;7.05;;
40244;SDS011;25963;42.694;23.600;2023-08-01T00:52:22;6.88;;;6.38;;
40244;SDS011;25963;42.694;23.600;2023-08-01T00:54:47;7.55;;;6.82;;
40244;SDS011;25963;42.694;23.600;2023-08-01T00:57:13;7.78;;;7.07;;
40244;SDS011;25963;42.694;23.600;2023-08-01T00:59:39;7.35;;;6.65;;
40244;SDS011;25963;42.694;23.600;2023-08-01T01:02:05;7.70;;;6.90;;
40244;SDS011;25963;42.694;23.600;2023-08-01T01:04:30;8.05;;;7.30;;
40244;SDS011;25963;42.694;23.600;2023-08-01T01:07:02;8.07;;;6.38;;
40244;SDS011;25963;42.694;23.600;2023-08-01T01:09:30;6.80;;;6.20;;
40244;SDS011;25963;42.694;23.600;2023-08-01T01:11:59;7.45;;;6.85;;
40244;SDS011;25963;42.694;23.600;2023-08-01T01:14:28;7.80;;;7.10;;
40244;SDS011;25963;42.694;23.600;2023-08-01T01:16:54;8.70;;;7.80;;
40244;SDS011;25963;42.694;23.600;2023-08-01T01:19:20;6.65;;;5.97;;
40244;SDS011;25963;42.694;23.600;2023-08-01T01:21:45;8.25;;;6.80;;
40244;SDS011;25963;42.694;23.600;2023-08-01T01:24:25;6.93;;;6.43;;
40244;SDS011;25963;42.694;23.600;2023-08-01T01:26:53;7.00;;;6.32;;
40244;SDS011;25963;42.694;23.600;2023-08-01T01:29:20;7.05;;;6.45;;
40244;SDS011;25963;42.694;23.600;2023-08-01T01:31:46;9.60;;;6.60;;
40244;SDS011;25963;42.694;23.600;2023-08-01T01:34:13;7.70;;;7.00;;
40244;SDS011;25963;42.694;23.600;2023-08-01T01:36:38;6.85;;;6.15;;
40244;SDS011;25963;42.694;23.600;2023-08-01T01:39:04;6.97;;;6.38;;
40244;SDS011;25963;42.694;23.600;2023-08-01T01:41:29;6.88;;;6.28;;
40244;SDS011;25963;42.694;23.600;2023-08-01T01:43:55;9.55;;;6.88;;
40244;SDS011;25963;42.694;23.600;2023-08-01T01:46:20;6.97;;;6.38;;
40244;SDS011;25963;42.694;23.600;2023-08-01T01:48:45;7.25;;;6.20;;
40244;SDS011;25963;42.694;23.600;2023-08-01T01:51:11;7.18;;;6.47;;
40244;SDS011;25963;42.694;23.600;2023-08-01T01:53:36;6.80;;;6.20;;
40244;SDS011;25963;42.694;23.600;2023-08-01T01:56:02;7.63;;;6.93;;
40244;SDS011;25963;42.694;23.600;2023-08-01T01:58:27;7.28;;;6.63;;
40244;SDS011;25963;42.694;23.600;2023-08-01T02:00:53;7.70;;;6.88;;
40244;SDS011;25963;42.694;23.600;2023-08-01T02:03:18;7.72;;;7.13;;
40244;SDS011;25963;42.694;23.600;2023-08-01T02:05:44;9.20;;;6.45;;
40244;SDS011;25963;42.694;23.600;2023-08-01T02:08:09;7.40;;;6.78;;
40244;SDS011;25963;42.694;23.600;2023-08-01T02:10:35;9.45;;;6.60;;
40244;SDS011;25963;42.694;23.600;2023-08-01T02:13:00;7.78;;;6.80;;
40244;SDS011;25963;42.694;23.600;2023-08-01T02:15:26;7.07;;;6.47;;
40244;SDS011;25963;42.694;23.600;2023-08-01T02:17:51;7.55;;;6.65;;
40244;SDS011;25963;42.694;23.600;2023-08-01T02:20:16;6.82;;;6.22;;
40244;SDS011;25963;42.694;23.600;2023-08-01T02:22:42;9.05;;;6.28;;
40244;SDS011;25963;42.694;23.600;2023-08-01T02:25:07;7.30;;;6.60;;
40244;SDS011;25963;42.694;23.600;2023-08-01T02:27:33;8.48;;;6.55;;
40244;SDS011;25963;42.694;23.600;2023-08-01T02:29:58;7.63;;;6.88;;
40244;SDS011;25963;42.694;23.600;2023-08-01T02:32:24;6.93;;;6.32;;
40244;SDS011;25963;42.694;23.600;2023-08-01T02:34:49;7.65;;;6.95;;
40244;SDS011;25963;42.694;23.600;2023-08-01T02:37:15;7.38;;;6.68;;
40244;SDS011;25963;42.694;23.600;2023-08-01T02:39:40;7.43;;;6.32;;
40244;SDS011;25963;42.694;23.600;2023-08-01T02:42:06;9.45;;;6.55;;
40244;SDS011;25963;42.694;23.600;2023-08-01T02:44:31;7.18;;;6.57;;
40244;SDS011;25963;42.694;23.600;2023-08-01T02:46:57;7.95;;;7.20;;
40244;SDS011;25963;42.694;23.600;2023-08-01T02:49:22;7.40;;;6.30;;
40244;SDS011;25963;42.694;23.600;2023-08-01T02:51:47;7.00;;;6.40;;
40244;SDS011;25963;42.694;23.600;2023-08-01T02:54:13;6.85;;;6.25;;
40244;SDS011;25963;42.694;23.600;2023-08-01T02:56:38;6.80;;;6.20;;
40244;SDS011;25963;42.694;23.600;2023-08-01T02:59:07;9.02;;;7.00;;
40244;SDS011;25963;42.694;23.600;2023-08-01T03:01:36;8.75;;;7.05;;
40244;SDS011;25963;42.694;23.600;2023-08-01T03:04:03;7.78;;;7.07;;
40244;SDS011;25963;42.694;23.600;2023-08-01T03:06:29;7.20;;;6.50;;
40244;SDS011;25963;42.694;23.600;2023-08-01T03:08:56;7.10;;;6.47;;
40244;SDS011;25963;42.694;23.600;2023-08-01T03:11:21;7.00;;;6.40;;
40244;SDS011;25963;42.694;23.600;2023-08-01T03:13:47;7.75;;;6.05;;
40244;SDS011;25963;42.694;23.600;2023-08-01T03:16:12;9.13;;;6.72;;
40244;SDS011;25963;42.694;23.600;2023-08-01T03:18:38;6.72;;;6.05;;
40244;SDS011;25963;42.694;23.600;2023-08-01T03:21:03;7.28;;;6.57;;
40244;SDS011;25963;42.694;23.600;2023-08-01T03:23:29;8.57;;;6.63;;
40244;SDS011;25963;42.694;23.600;2023-08-01T03:25:54;6.80;;;6.13;;
40244;SDS011;25963;42.694;23.600;2023-08-01T03:28:20;6.80;;;5.95;;
40244;SDS011;25963;42.694;23.600;2023-08-01T03:30:45;7.00;;;6.30;;
40244;SDS011;25963;42.694;23.600;2023-08-01T03:33:14;7.43;;;6.65;;
40244;SDS011;25963;42.694;23.600;2023-08-01T03:35:40;7.07;;;6.38;;
40244;SDS011;25963;42.694;23.600;2023-08-01T03:38:05;27.27;;;8.57;;
40244;SDS011;25963;42.694;23.600;2023-08-01T03:40:31;12.52;;;7.05;;
40244;SDS011;25963;42.694;23.600;2023-08-01T03:42:56;13.20;;;6.80;;
40244;SDS011;25963;42.694;23.600;2023-08-01T03:45:22;6.93;;;5.75;;
40244;SDS011;25963;42.694;23.600;2023-08-01T03:47:47;7.15;;;6.30;;
40244;SDS011;25963;42.694;23.600;2023-08-01T03:50:13;7.15;;;6.45;;
40244;SDS011;25963;42.694;23.600;2023-08-01T03:52:39;7.05;;;6.35;;
40244;SDS011;25963;42.694;23.600;2023-08-01T03:55:04;6.93;;;6.32;;
40244;SDS011;25963;42.694;23.600;2023-08-01T03:57:30;6.55;;;5.95;;
40244;SDS011;25963;42.694;23.600;2023-08-01T03:59:58;6.88;;;5.60;;
40244;SDS011;25963;42.694;23.600;2023-08-01T04:02:24;7.10;;;6.43;;
40244;SDS011;25963;42.694;23.600;2023-08-01T04:04:49;5.88;;;5.18;;
40244;SDS011;25963;42.694;23.600;2023-08-01T04:07:15;6.57;;;5.30;;
40244;SDS011;25963;42.694;23.600;2023-08-01T04:09:40;6.07;;;5.47;;
40244;SDS011;25963;42.694;23.600;2023-08-01T04:12:05;6.85;;;5.53;;
40244;SDS011;25963;42.694;23.600;2023-08-01T04:14:32;6.15;;;5.65;;
40244;SDS011;25963;42.694;23.600;2023-08-01T04:16:57;7.78;;;4.85;;
40244;SDS011;25963;42.694;23.600;2023-08-01T04:19:23;6.18;;;4.47;;
40244;SDS011;25963;42.694;23.600;2023-08-01T04:21:49;4.68;;;3.92;;
40244;SDS011;25963;42.694;23.600;2023-08-01T04:24:15;4.68;;;4.28;;
40244;SDS011;25963;42.694;23.600;2023-08-01T04:26:40;4.95;;;3.78;;
40244;SDS011;25963;42.694;23.600;2023-08-01T04:29:06;4.78;;;4.38;;
40244;SDS011;25963;42.694;23.600;2023-08-01T04:31:31;5.10;;;4.00;;
40244;SDS011;25963;42.694;23.600;2023-08-01T04:33:57;5.22;;;4.07;;
40244;SDS011;25963;42.694;23.600;2023-08-01T04:36:22;4.53;;;4.20;;
40244;SDS011;25963;42.694;23.600;2023-08-01T04:38:48;4.07;;;3.65;;
40244;SDS011;25963;42.694;23.600;2023-08-01T04:41:13;5.35;;;3.67;;
40244;SDS011;25963;42.694;23.600;2023-08-01T04:43:38;5.00;;;3.50;;
40244;SDS011;25963;42.694;23.600;2023-08-01T04:46:04;4.28;;;3.88;;
40244;SDS011;25963;42.694;23.600;2023-08-01T04:48:29;4.05;;;3.75;;
40244;SDS011;25963;42.694;23.600;2023-08-01T04:50:55;3.42;;;3.13;;
40244;SDS011;25963;42.694;23.600;2023-08-01T04:53:20;3.72;;;3.38;;
40244;SDS011;25963;42.694;23.600;2023-08-01T04:55:45;4.55;;;3.78;;
40244;SDS011;25963;42.694;23.600;2023-08-01T04:58:11;9.63;;;3.60;;
40244;SDS011;25963;42.694;23.600;2023-08-01T05:00:37;4.03;;;3.20;;
40244;SDS011;25963;42.694;23.600;2023-08-01T05:03:03;4.00;;;3.53;;
40244;SDS011;25963;42.694;23.600;2023-08-01T05:05:28;5.60;;;4.57;;
40244;SDS011;25963;42.694;23.600;2023-08-01T05:07:54;4.28;;;3.88;;
40244;SDS011;25963;42.694;23.600;2023-08-01T05:10:19;4.03;;;3.50;;
40244;SDS011;25963;42.694;23.600;2023-08-01T05:12:45;5.95;;;4.75;;
40244;SDS011;25963;42.694;23.600;2023-08-01T05:15:10;4.78;;;4.03;;
40244;SDS011;25963;42.694;23.600;2023-08-01T05:17:36;6.18;;;4.25;;
40244;SDS011;25963;42.694;23.600;2023-08-01T05:20:01;4.20;;;3.80;;
40244;SDS011;25963;42.694;23.600;2023-08-01T05:22:29;4.75;;;3.55;;
40244;SDS011;25963;42.694;23.600;2023-08-01T05:24:54;4.65;;;3.80;;
40244;SDS011;25963;42.694;23.600;2023-08-01T05:27:20;4.68;;;3.70;;
40244;SDS011;25963;42.694;23.600;2023-08-01T05:29:45;4.85;;;3.50;;
40244;SDS011;25963;42.694;23.600;2023-08-01T05:32:10;8.20;;;3.95;;
40244;SDS011;25963;42.694;23.600;2023-08-01T05:34:36;4.28;;;3.55;;
40244;SDS011;25963;42.694;23.600;2023-08-01T05:37:01;3.85;;;3.55;;
40244;SDS011;25963;42.694;23.600;2023-08-01T05:39:27;7.72;;;3.97;;
40244;SDS011;25963;42.694;23.600;2023-08-01T05:41:53;3.70;;;3.40;;
40244;SDS011;25963;42.694;23.600;2023-08-01T05:44:18;4.43;;;3.95;;
40244;SDS011;25963;42.694;23.600;2023-08-01T05:46:44;3.50;;;3.20;;
40244;SDS011;25963;42.694;23.600;2023-08-01T05:49:09;6.00;;;3.80;;
40244;SDS011;25963;42.694;23.600;2023-08-01T05:51:34;3.63;;;3.38;;
40244;SDS011;25963;42.694;23.600;2023-08-01T05:54:00;3.92;;;3.63;;
40244;SDS011;25963;42.694;23.600;2023-08-01T05:56:25;5.60;;;3.92;;
40244;SDS011;25963;42.694;23.600;2023-08-01T05:58:51;4.65;;;3.30;;
40244;SDS011;25963;42.694;23.600;2023-08-01T06:01:16;4.78;;;3.67;;
40244;SDS011;25963;42.694;23.600;2023-08-01T06:03:42;5.40;;;4.32;;
40244;SDS011;25963;42.694;23.600;2023-08-01T06:06:07;4.55;;;3.55;;
40244;SDS011;25963;42.694;23.600;2023-08-01T06:08:33;3.60;;;3.30;;
40244;SDS011;25963;42.694;23.600;2023-08-01T06:10:58;3.70;;;3.40;;
40244;SDS011;25963;42.694;23.600;2023-08-01T06:13:24;4.72;;;3.78;;
40244;SDS011;25963;42.694;23.600;2023-08-01T06:15:49;5.88;;;4.78;;
40244;SDS011;25963;42.694;23.600;2023-08-01T06:18:15;5.85;;;4.10;;
40244;SDS011;25963;42.694;23.600;2023-08-01T06:20:40;3.70;;;3.38;;
40244;SDS011;25963;42.694;23.600;2023-08-01T06:23:06;5.13;;;3.33;;
40244;SDS011;25963;42.694;23.600;2023-08-01T06:25:31;3.33;;;3.13;;
40244;SDS011;25963;42.694;23.600;2023-08-01T06:27:56;7.95;;;3.72;;
40244;SDS011;25963;42.694;23.600;2023-08-01T06:30:22;3.80;;;3.28;;
40244;SDS011;25963;42.694;23.600;2023-08-01T06:32:47;4.90;;;3.00;;
40244;SDS011;25963;42.694;23.600;2023-08-01T06:35:13;6.00;;;3.15;;
40244;SDS011;25963;42.694;23.600;2023-08-01T06:37:38;3.25;;;2.95;;
40244;SDS011;25963;42.694;23.600;2023-08-01T06:40:04;3.05;;;2.85;;
40244;SDS011;25963;42.694;23.600;2023-08-01T06:42:30;3.25;;;3.03;;
40244;SDS011;25963;42.694;23.600;2023-08-01T06:44:56;3.75;;;2.95;;
40244;SDS011;25963;42.694;23.600;2023-08-01T06:47:21;3.03;;;2.75;;
40244;SDS011;25963;42.694;23.600;2023-08-01T06:49:46;3.50;;;3.22;;
40244;SDS011;25963;42.694;23.600;2023-08-01T06:52:12;4.10;;;3.17;;
40244;SDS011;25963;42.694;23.600;2023-08-01T06:54:37;3.78;;;3.33;;
40244;SDS011;25963;42.694;23.600;2023-08-01T06:57:03;3.30;;;3.00;;
40244;SDS011;25963;42.694;23.600;2023-08-01T06:59:29;6.88;;;3.83;;
40244;SDS011;25963;42.694;23.600;2023-08-01T07:01:55;4.93;;;3.22;;
40244;SDS011;25963;42.694;23.600;2023-08-01T07:04:20;4.45;;;3.00;;
40244;SDS011;25963;42.694;23.600;2023-08-01T07:06:46;3.72;;;3.20;;
40244;SDS011;25963;42.694;23.600;2023-08-01T07:09:11;5.75;;;2.95;;
40244;SDS011;25963;42.694;23.600;2023-08-01T07:11:37;3.72;;;3.22;;
40244;SDS011;25963;42.694;23.600;2023-08-01T07:14:02;5.72;;;3.33;;
40244;SDS011;25963;42.694;23.600;2023-08-01T07:16:27;4.43;;;3.65;;
40244;SDS011;25963;42.694;23.600;2023-08-01T07:18:54;4.43;;;4.03;;
40244;SDS011;25963;42.694;23.600;2023-08-01T07:21:20;3.45;;;3.10;;
40244;SDS011;25963;42.694;23.600;2023-08-01T07:23:45;4.45;;;3.13;;
40244;SDS011;25963;42.694;23.600;2023-08-01T07:26:13;3.55;;;2.92;;
40244;SDS011;25963;42.694;23.600;2023-08-01T07:28:38;3.78;;;2.33;;
40244;SDS011;25963;42.694;23.600;2023-08-01T07:31:05;3.20;;;2.78;;
40244;SDS011;25963;42.694;23.600;2023-08-01T07:33:32;4.35;;;2.60;;
40244;SDS011;25963;42.694;23.600;2023-08-01T07:35:58;4.43;;;2.60;;
40244;SDS011;25963;42.694;23.600;2023-08-01T07:38:23;4.30;;;3.28;;
40244;SDS011;25963;42.694;23.600;2023-08-01T07:40:49;4.32;;;3.05;;
40244;SDS011;25963;42.694;23.600;2023-08-01T07:43:15;4.28;;;2.60;;
40244;SDS011;25963;42.694;23.600;2023-08-01T07:45:41;2.85;;;2.42;;
40244;SDS011;25963;42.694;23.600;2023-08-01T07:48:06;2.80;;;2.38;;
40244;SDS011;25963;42.694;23.600;2023-08-01T07:50:32;4.05;;;2.70;;
40244;SDS011;25963;42.694;23.600;2023-08-01T07:52:57;2.75;;;2.45;;
40244;SDS011;25963;42.694;23.600;2023-08-01T07:55:23;3.35;;;2.55;;
40244;SDS011;25963;42.694;23.600;2023-08-01T07:57:49;4.68;;;2.95;;
40244;SDS011;25963;42.694;23.600;2023-08-01T08:00:15;4.00;;;3.00;;
40244;SDS011;25963;42.694;23.600;2023-08-01T08:02:41;5.40;;;2.90;;
40244;SDS011;25963;42.694;23.600;2023-08-01T08:05:07;3.10;;;2.78;;
40244;SDS011;25963;42.694;23.600;2023-08-01T08:07:33;4.40;;;3.00;;
40244;SDS011;25963;42.694;23.600;2023-08-01T08:09:59;3.30;;;2.40;;
40244;SDS011;25963;42.694;23.600;2023-08-01T08:12:24;7.95;;;2.95;;
40244;SDS011;25963;42.694;23.600;2023-08-01T08:14:50;4.47;;;3.13;;
40244;SDS011;25963;42.694;23.600;2023-08-01T08:17:15;3.00;;;2.70;;
40244;SDS011;25963;42.694;23.600;2023-08-01T08:19:41;4.25;;;2.92;;
40244;SDS011;25963;42.694;23.600;2023-08-01T08:22:06;4.25;;;2.35;;
40244;SDS011;25963;42.694;23.600;2023-08-01T08:24:32;3.15;;;2.75;;
40244;SDS011;25963;42.694;23.600;2023-08-01T08:26:57;3.08;;;2.17;;
40244;SDS011;25963;42.694;23.600;2023-08-01T08:29:23;7.35;;;3.13;;
40244;SDS011;25963;42.694;23.600;2023-08-01T08:31:48;2.65;;;2.42;;
40244;SDS011;25963;42.694;23.600;2023-08-01T08:34:14;2.78;;;2.58;;
40244;SDS011;25963;42.694;23.600;2023-08-01T08:36:39;3.70;;;2.75;;
40244;SDS011;25963;42.694;23.600;2023-08-01T08:39:05;3.08;;;2.72;;
40244;SDS011;25963;42.694;23.600;2023-08-01T08:41:38;6.35;;;2.95;;
40244;SDS011;25963;42.694;23.600;2023-08-01T08:44:07;5.68;;;3.00;;
40244;SDS011;25963;42.694;23.600;2023-08-01T08:46:34;5.65;;;2.80;;
40244;SDS011;25963;42.694;23.600;2023-08-01T08:49:05;3.38;;;2.50;;
40244;SDS011;25963;42.694;23.600;2023-08-01T08:51:32;3.92;;;2.78;;
40244;SDS011;25963;42.694;23.600;2023-08-01T08:54:00;2.67;;;2.47;;
40244;SDS011;25963;42.694;23.600;2023-08-01T08:56:26;3.45;;;2.63;;
40244;SDS011;25963;42.694;23.600;2023-08-01T08:58:54;3.83;;;2.95;;
40244;SDS011;25963;42.694;23.600;2023-08-01T09:01:20;4.05;;;3.08;;
40244;SDS011;25963;42.694;23.600;2023-08-01T09:03:45;4.93;;;2.60;;
40244;SDS011;25963;42.694;23.600;2023-08-01T09:06:14;2.83;;;2.63;;
40244;SDS011;25963;42.694;23.600;2023-08-01T09:11:24;3.30;;;2.45;;
40244;SDS011;25963;42.694;23.600;2023-08-01T09:13:49;3.45;;;2.55;;
40244;SDS011;25963;42.694;23.600;2023-08-01T09:16:15;2.63;;;2.42;;
40244;SDS011;25963;42.694;23.600;2023-08-01T09:18:50;2.90;;;2.60;;
40244;SDS011;25963;42.694;23.600;2023-08-01T09:21:22;3.15;;;2.95;;
40244;SDS011;25963;42.694;23.600;2023-08-01T09:23:48;2.70;;;2.40;;
40244;SDS011;25963;42.694;23.600;2023-08-01T09:26:14;2.75;;;2.53;;
40244;SDS011;25963;42.694;23.600;2023-08-01T09:28:40;4.85;;;2.40;;
40244;SDS011;25963;42.694;23.600;2023-08-01T09:31:06;2.97;;;2.33;;
40244;SDS011;25963;42.694;23.600;2023-08-01T09:33:40;4.20;;;2.30;;
40244;SDS011;25963;42.694;23.600;2023-08-01T09:36:09;3.53;;;2.70;;
40244;SDS011;25963;42.694;23.600;2023-08-01T09:38:35;7.47;;;2.80;;
40244;SDS011;25963;42.694;23.600;2023-08-01T09:41:02;5.65;;;2.75;;
40244;SDS011;25963;42.694;23.600;2023-08-01T09:43:37;2.78;;;2.55;;
40244;SDS011;25963;42.694;23.600;2023-08-01T09:46:03;6.25;;;2.60;;
40244;SDS011;25963;42.694;23.600;2023-08-01T09:48:31;2.60;;;2.40;;
40244;SDS011;25963;42.694;23.600;2023-08-01T09:51:07;3.80;;;2.60;;
40244;SDS011;25963;42.694;23.600;2023-08-01T09:53:34;4.47;;;2.67;;
40244;SDS011;25963;42.694;23.600;2023-08-01T09:55:59;4.75;;;2.45;;
40244;SDS011;25963;42.694;23.600;2023-08-01T09:58:26;7.07;;;2.63;;
40244;SDS011;25963;42.694;23.600;2023-08-01T10:00:57;7.47;;;3.00;;
40244;SDS011;25963;42.694;23.600;2023-08-01T10:03:23;3.85;;;2.25;;
40244;SDS011;25963;42.694;23.600;2023-08-01T10:05:48;3.25;;;2.80;;
40244;SDS011;25963;42.694;23.600;2023-08-01T10:08:18;5.20;;;2.07;;
40244;SDS011;25963;42.694;23.600;2023-08-01T10:10:44;4.00;;;2.60;;
40244;SDS011;25963;42.694;23.600;2023-08-01T10:13:12;3.00;;;2.28;;
40244;SDS011;25963;42.694;23.600;2023-08-01T10:15:38;2.92;;;2.70;;
40244;SDS011;25963;42.694;23.600;2023-08-01T10:18:04;2.78;;;2.20;;
40244;SDS011;25963;42.694;23.600;2023-08-01T10:20:30;2.40;;;2.20;;
40244;SDS011;25963;42.694;23.600;2023-08-01T10:22:56;2.95;;;2.63;;
40244;SDS011;25963;42.694;23.600;2023-08-01T10:25:22;2.95;;;2.40;;
40244;SDS011;25963;42.694;23.600;2023-08-01T10:28:01;2.95;;;2.65;;
40244;SDS011;25963;42.694;23.600;2023-08-01T10:30:28;2.70;;;2.38;;
40244;SDS011;25963;42.694;23.600;2023-08-01T10:32:55;2.72;;;2.53;;
40244;SDS011;25963;42.694;23.600;2023-08-01T10:35:37;7.75;;;2.65;;
40244;SDS011;25963;42.694;23.600;2023-08-01T10:38:05;4.43;;;2.60;;
40244;SDS011;25963;42.694;23.600;2023-08-01T10:40:36;2.83;;;2.63;;
40244;SDS011;25963;42.694;23.600;2023-08-01T10:43:05;2.88;;;2.58;;
40244;SDS011;25963;42.694;23.600;2023-08-01T10:45:31;4.22;;;3.15;;
40244;SDS011;25963;42.694;23.600;2023-08-01T10:48:06;2.80;;;2.40;;
40244;SDS011;25963;42.694;23.600;2023-08-01T10:50:35;3.97;;;2.65;;
40244;SDS011;25963;42.694;23.600;2023-08-01T10:53:04;4.43;;;2.75;;
40244;SDS011;25963;42.694;23.600;2023-08-01T10:55:41;6.88;;;3.10;;
40244;SDS011;25963;42.694;23.600;2023-08-01T10:58:07;5.55;;;2.55;;
40244;SDS011;25963;42.694;23.600;2023-08-01T11:00:33;5.70;;;2.80;;
40244;SDS011;25963;42.694;23.600;2023-08-01T11:02:59;3.03;;;2.45;;
40244;SDS011;25963;42.694;23.600;2023-08-01T11:05:24;4.60;;;2.38;;
40244;SDS011;25963;42.694;23.600;2023-08-01T11:07:54;3.00;;;2.53;;
40244;SDS011;25963;42.694;23.600;2023-08-01T11:10:24;3.22;;;2.67;;
40244;SDS011;25963;42.694;23.600;2023-08-01T11:12:54;5.65;;;3.22;;
40244;SDS011;25963;42.694;23.600;2023-08-01T11:15:19;2.95;;;2.63;;
40244;SDS011;25963;42.694;23.600;2023-08-01T11:17:49;4.20;;;2.72;;
40244;SDS011;25963;42.694;23.600;2023-08-01T11:20:15;3.17;;;2.83;;
40244;SDS011;25963;42.694;23.600;2023-08-01T11:25:31;5.75;;;3.53;;
40244;SDS011;25963;42.694;23.600;2023-08-01T11:28:00;5.22;;;2.70;;
40244;SDS011;25963;42.694;23.600;2023-08-01T11:30:31;7.88;;;3.63;;
40244;SDS011;25963;42.694;23.600;2023-08-01T11:32:57;5.17;;;2.70;;
40244;SDS011;25963;42.694;23.600;2023-08-01T11:35:23;3.65;;;3.10;;
40244;SDS011;25963;42.694;23.600;2023-08-01T11:37:49;3.20;;;2.88;;
40244;SDS011;25963;42.694;23.600;2023-08-01T11:40:15;4.72;;;3.17;;
40244;SDS011;25963;42.694;23.600;2023-08-01T11:42:41;3.95;;;3.17;;
40244;SDS011;25963;42.694;23.600;2023-08-01T11:45:10;5.38;;;3.10;;
40244;SDS011;25963;42.694;23.600;2023-08-01T11:47:36;3.10;;;2.90;;
40244;SDS011;25963;42.694;23.600;2023-08-01T11:50:02;3.60;;;3.10;;
40244;SDS011;25963;42.694;23.600;2023-08-01T11:52:28;3.55;;;2.72;;
40244;SDS011;25963;42.694;23.600;2023-08-01T11:54:54;4.07;;;2.85;;
40244;SDS011;25963;42.694;23.600;2023-08-01T11:57:20;2.90;;;2.63;;
40244;SDS011;25963;42.694;23.600;2023-08-01T11:59:47;3.67;;;3.00;;
40244;SDS011;25963;42.694;23.600;2023-08-01T12:02:20;5.85;;;3.85;;
40244;SDS011;25963;42.694;23.600;2023-08-01T12:04:50;4.28;;;3.03;;
40244;SDS011;25963;42.694;23.600;2023-08-01T12:07:17;3.30;;;2.78;;
40244;SDS011;25963;42.694;23.600;2023-08-01T12:09:42;4.90;;;3.03;;
40244;SDS011;25963;42.694;23.600;2023-08-01T12:12:09;5.22;;;3.13;;
40244;SDS011;25963;42.694;23.600;2023-08-01T12:14:39;3.22;;;2.90;;
40244;SDS011;25963;42.694;23.600;2023-08-01T12:17:06;4.30;;;3.17;;
40244;SDS011;25963;42.694;23.600;2023-08-01T12:19:31;3.25;;;2.97;;
40244;SDS011;25963;42.694;23.600;2023-08-01T12:21:58;3.53;;;3.22;;
40244;SDS011;25963;42.694;23.600;2023-08-01T12:24:25;6.78;;;3.13;;
40244;SDS011;25963;42.694;23.600;2023-08-01T12:26:50;6.32;;;3.70;;
40244;SDS011;25963;42.694;23.600;2023-08-01T12:29:15;3.60;;;3.30;;
40244;SDS011;25963;42.694;23.600;2023-08-01T12:31:41;4.72;;;3.63;;
40244;SDS011;25963;42.694;23.600;2023-08-01T12:34:06;3.40;;;3.10;;
40244;SDS011;25963;42.694;23.600;2023-08-01T12:36:32;5.03;;;3.15;;
40244;SDS011;25963;42.694;23.600;2023-08-01T12:38:57;4.35;;;3.50;;
40244;SDS011;25963;42.694;23.600;2023-08-01T12:41:23;3.55;;;3.00;;
40244;SDS011;25963;42.694;23.600;2023-08-01T12:43:48;5.60;;;2.92;;
40244;SDS011;25963;42.694;23.600;2023-08-01T12:46:14;4.10;;;3.42;;
40244;SDS011;25963;42.694;23.600;2023-08-01T12:48:40;4.38;;;3.15;;
40244;SDS011;25963;42.694;23.600;2023-08-01T12:51:05;5.28;;;2.88;;
40244;SDS011;25963;42.694;23.600;2023-08-01T12:53:31;3.60;;;3.30;;
40244;SDS011;25963;42.694;23.600;2023-08-01T12:55:56;4.57;;;3.78;;
40244;SDS011;25963;42.694;23.600;2023-08-01T12:58:22;3.33;;;2.90;;
40244;SDS011;25963;42.694;23.600;2023-08-01T13:00:47;3.70;;;3.28;;
40244;SDS011;25963;42.694;23.600;2023-08-01T13:03:13;3.75;;;3.40;;
40244;SDS011;25963;42.694;23.600;2023-08-01T13:05:39;4.57;;;3.78;;
40244;SDS011;25963;42.694;23.600;2023-08-01T13:08:07;5.13;;;3.38;;
40244;SDS011;25963;42.694;23.600;2023-08-01T13:10:33;3.80;;;3.08;;
40244;SDS011;25963;42.694;23.600;2023-08-01T13:13:00;6.53;;;3.35;;
40244;SDS011;25963;42.694;23.600;2023-08-01T13:15:26;3.88;;;3.10;;
40244;SDS011;25963;42.694;23.600;2023-08-01T13:17:52;5.68;;;3.78;;
40244;SDS011;25963;42.694;23.600;2023-08-01T13:20:17;6.80;;;3.55;;
40244;SDS011;25963;42.694;23.600;2023-08-01T13:22:45;4.07;;;3.03;;
40244;SDS011;25963;42.694;23.600;2023-08-01T13:25:13;6.05;;;3.55;;
40244;SDS011;25963;42.694;23.600;2023-08-01T13:27:39;4.80;;;3.60;;
40244;SDS011;25963;42.694;23.600;2023-08-01T13:30:05;7.55;;;3.55;;
40244;SDS011;25963;42.694;23.600;2023-08-01T13:32:31;5.13;;;3.28;;
40244;SDS011;25963;42.694;23.600;2023-08-01T13:34:56;3.75;;;3.00;;
40244;SDS011;25963;42.694;23.600;2023-08-01T13:37:22;5.63;;;2.85;;
40244;SDS011;25963;42.694;23.600;2023-08-01T13:39:47;6.45;;;3.55;;
40244;SDS011;25963;42.694;23.600;2023-08-01T13:42:13;7.13;;;3.67;;
40244;SDS011;25963;42.694;23.600;2023-08-01T13:44:40;3.78;;;3.28;;
40244;SDS011;25963;42.694;23.600;2023-08-01T13:47:06;4.63;;;3.40;;
40244;SDS011;25963;42.694;23.600;2023-08-01T13:49:31;6.30;;;3.22;;
40244;SDS011;25963;42.694;23.600;2023-08-01T13:51:57;4.15;;;3.10;;
40244;SDS011;25963;42.694;23.600;2023-08-01T13:54:23;5.90;;;3.35;;
40244;SDS011;25963;42.694;23.600;2023-08-01T13:56:49;4.80;;;3.15;;
40244;SDS011;25963;42.694;23.600;2023-08-01T13:59:14;4.78;;;3.45;;
40244;SDS011;25963;42.694;23.600;2023-08-01T14:01:40;3.42;;;2.72;;
40244;SDS011;25963;42.694;23.600;2023-08-01T14:04:05;4.82;;;3.05;;
40244;SDS011;25963;42.694;23.600;2023-08-01T14:06:31;5.65;;;3.20;;
40244;SDS011;25963;42.694;23.600;2023-08-01T14:08:56;9.43;;;3.33;;
40244;SDS011;25963;42.694;23.600;2023-08-01T14:11:22;5.35;;;2.97;;
40244;SDS011;25963;42.694;23.600;2023-08-01T14:13:48;6.88;;;3.05;;
40244;SDS011;25963;42.694;23.600;2023-08-01T14:16:14;3.38;;;2.90;;
40244;SDS011;25963;42.694;23.600;2023-08-01T14:18:41;3.15;;;2.80;;
40244;SDS011;25963;42.694;23.600;2023-08-01T14:21:07;3.53;;;3.10;;
40244;SDS011;25963;42.694;23.600;2023-08-01T14:23:33;3.47;;;3.17;;
40244;SDS011;25963;42.694;23.600;2023-08-01T14:25:58;3.97;;;3.25;;
40244;SDS011;25963;42.694;23.600;2023-08-01T14:28:24;3.30;;;3.00;;
40244;SDS011;25963;42.694;23.600;2023-08-01T14:30:50;5.72;;;3.20;;
40244;SDS011;25963;42.694;23.600;2023-08-01T14:33:15;4.35;;;3.20;;